Nordic Zenith — A8WZ7 — position and weather

sailwx.info

Track history (hours):
 
Tides and Currents Weather Stations Pressure Air Temp Water Temp Dewpoint Dewpoint Depression Visibility Wind Speed Wind Dir Waves Ship Positions

Nordic Zenith

Last reported at 2018-May-12 18:03 UTC. Time now 2018-May-26 04:07 UTC.
Position S 32°26' W 072°27'.
Warning: this ship's position is 13 days out of date.

Length 274 m; draft 15.3 m.

Type: Tanker. MMSI: 636014869.

Date/timePositionNaut miles runAvg speedWind from/ knotsBaromVisibWave heightAir tempDewpointWater temp
2018-May-12 18:03S 32°26' W 072°27'1 0.5
2018-May-12 15:07S 32°28' W 072°27'0 0.5
2018-May-12 14:21S 32°28' W 072°28'0 0.4
2018-May-12 13:58S 32°28' W 072°28'12 1.0
2018-May-12 01:36S 32°39' W 072°21'0 1.2
2018-May-12 01:30S 32°39' W 072°21'1 1.3
2018-May-12 00:59S 32°40' W 072°21'2 1.3
2018-May-11 23:16S 32°42' W 072°21'1 1.4
2018-May-11 22:45S 32°43' W 072°21'0 1.5
2018-May-11 22:30S 32°43' W 072°21'1 1.4
2018-May-11 21:47S 32°44' W 072°20'0 0.8
2018-May-11 21:30S 32°44' W 072°20'0 0.9
2018-May-11 21:00S 32°44' W 072°20'5 9.3
2018-May-11 20:30S 32°40' W 072°18'611.7
2018-May-11 20:00S 32°34' W 072°15'611.8
2018-May-11 19:30S 32°29' W 072°11'611.9
2018-May-11 19:00S 32°24' W 072°08'  
2018-May-08 20:59S 32°33' W 072°12'0 0.4
2018-May-08 20:26S 32°33' W 072°12'1 0.6
2018-May-08 17:57S 32°33' W 072°13'17 0.4
2018-May-06 17:03S 32°39' W 071°54'1 4.5
2018-May-06 16:45S 32°40' W 071°53'2 4.5
2018-May-06 16:25S 32°41' W 071°51'2 3.8
2018-May-06 16:00S 32°42' W 071°50'2 1.1
2018-May-06 14:10S 32°40' W 071°52'0 1.3
2018-May-06 13:59S 32°40' W 071°52'1 1.2
2018-May-06 13:30S 32°40' W 071°52'1 1.0
2018-May-06 13:00S 32°40' W 071°53'1 1.1
2018-May-06 12:30S 32°39' W 071°53'1 1.1
2018-May-06 12:00S 32°39' W 071°54'0 0.9
2018-May-06 11:30S 32°39' W 071°54'  
Track history (hours):
 
Tides and Currents Weather Stations Pressure Air Temp Water Temp Dewpoint Dewpoint Depression Visibility Wind Speed Wind Dir Waves Ship Positions

Nordic Zenith

Last reported at 2018-May-12 18:03 UTC. Time now 2018-May-26 04:07 UTC.
Position S 32°26' W 072°27'.
Warning: this ship's position is 13 days out of date.

Length 274 m; draft 15.3 m.

Type: Tanker. MMSI: 636014869.

Date/timePositionNaut miles runAvg speedWind from/ knotsBaromVisibWave heightAir tempDewpointWater temp
2018-May-12 18:03S 32°26' W 072°27'1 0.5
2018-May-12 15:07S 32°28' W 072°27'0 0.5
2018-May-12 14:21S 32°28' W 072°28'0 0.4
2018-May-12 13:58S 32°28' W 072°28'12 1.0
2018-May-12 01:36S 32°39' W 072°21'0 1.2
2018-May-12 01:30S 32°39' W 072°21'1 1.3
2018-May-12 00:59S 32°40' W 072°21'2 1.3
2018-May-11 23:16S 32°42' W 072°21'1 1.4
2018-May-11 22:45S 32°43' W 072°21'0 1.5
2018-May-11 22:30S 32°43' W 072°21'1 1.4
2018-May-11 21:47S 32°44' W 072°20'0 0.8
2018-May-11 21:30S 32°44' W 072°20'0 0.9
2018-May-11 21:00S 32°44' W 072°20'5 9.3
2018-May-11 20:30S 32°40' W 072°18'611.7
2018-May-11 20:00S 32°34' W 072°15'611.8
2018-May-11 19:30S 32°29' W 072°11'611.9
2018-May-11 19:00S 32°24' W 072°08'  
2018-May-08 20:59S 32°33' W 072°12'0 0.4
2018-May-08 20:26S 32°33' W 072°12'1 0.6
2018-May-08 17:57S 32°33' W 072°13'17 0.4
2018-May-06 17:03S 32°39' W 071°54'1 4.5
2018-May-06 16:45S 32°40' W 071°53'2 4.5
2018-May-06 16:25S 32°41' W 071°51'2 3.8
2018-May-06 16:00S 32°42' W 071°50'2 1.1
2018-May-06 14:10S 32°40' W 071°52'0 1.3
2018-May-06 13:59S 32°40' W 071°52'1 1.2
2018-May-06 13:30S 32°40' W 071°52'1 1.0
2018-May-06 13:00S 32°40' W 071°53'1 1.1
2018-May-06 12:30S 32°39' W 071°53'1 1.1
2018-May-06 12:00S 32°39' W 071°54'0 0.9
2018-May-06 11:30S 32°39' W 071°54'  

Dump ship's entire track history